Time;durP1;ratioP1;P1;durP2;ratioP2;P2;SDS_P1;SDS_P2;PMS_P1;PMS_P2;Temp;Humidity;BMP_temperature;BMP_pressure;BME280_temperature;BME280_humidity;BME280_pressure;Samples;Min_cycle;Max_cycle;Signal;HPM_P1;HPM_P2
2022/07/08 00:00:45;;;;;;;6.75;2.50;;;;;;;16.58;100.00;94751.72;4963132;28;20030;-92
2022/07/08 00:03:11;;;;;;;11.80;2.25;;;;;;;16.42;100.00;94751.25;4947266;28;20038;-90
2022/07/08 00:05:36;;;;;;;3.67;2.10;;;;;;;16.68;100.00;94740.94;4947194;28;20428;-90
2022/07/08 00:08:02;;;;;;;3.53;2.20;;;;;;;16.25;100.00;94749.97;4962961;28;20031;-92
2022/07/08 00:10:27;;;;;;;5.75;2.40;;;;;;;16.04;100.00;94745.06;4947197;28;20027;-91
2022/07/08 00:12:53;;;;;;;4.78;2.38;;;;;;;16.10;100.00;94735.97;4962631;28;20034;-92
2022/07/08 00:15:21;;;;;;;5.82;2.53;;;;;;;16.27;100.00;94734.59;4962932;28;20031;-91
2022/07/08 00:17:47;;;;;;;4.55;2.30;;;;;;;16.17;100.00;94738.22;4946813;28;20038;-91
2022/07/08 00:20:12;;;;;;;5.57;2.50;;;;;;;16.05;100.00;94736.06;4962822;28;20031;-91
2022/07/08 00:22:38;;;;;;;6.22;2.42;;;;;;;15.99;100.00;94736.47;4956951;29;20082;-92
2022/07/08 00:25:04;;;;;;;7.28;2.35;;;;;;;16.00;100.00;94732.75;4960887;29;20077;-92
2022/07/08 00:27:30;;;;;;;4.15;2.35;;;;;;;16.47;100.00;94730.78;4943355;28;20035;-91
2022/07/08 00:29:55;;;;;;;3.22;2.38;;;;;;;16.38;100.00;94737.84;4935997;29;20091;-93
2022/07/08 00:32:21;;;;;;;7.60;2.40;;;;;;;16.16;100.00;94744.59;4943254;29;20042;-92
2022/07/08 00:34:46;;;;;;;3.90;2.08;;;;;;;16.32;100.00;94745.09;4927591;29;20035;-92
2022/07/08 00:37:12;;;;;;;4.25;1.90;;;;;;;16.33;100.00;94740.56;4927372;29;20118;-90
2022/07/08 00:39:38;;;;;;;6.05;2.25;;;;;;;16.44;100.00;94751.75;4927973;29;20032;-91
2022/07/08 00:42:07;;;;;;;2.88;1.60;;;;;;;16.07;100.00;94744.50;4927483;29;20126;-91
2022/07/08 00:44:33;;;;;;;2.47;1.63;;;;;;;16.30;100.00;94746.44;4927393;29;20448;-90
2022/07/08 00:46:58;;;;;;;3.05;1.88;;;;;;;16.12;100.00;94748.91;4927460;29;20035;-90
2022/07/08 00:49:24;;;;;;;5.00;1.75;;;;;;;15.83;100.00;94740.13;4943296;29;20046;-91
2022/07/08 00:51:49;;;;;;;6.75;1.92;;;;;;;15.64;100.00;94728.84;4927312;29;20035;-91
2022/07/08 00:54:19;;;;;;;4.40;1.80;;;;;;;15.64;100.00;94727.00;4927045;29;20038;-92
2022/07/08 00:56:45;;;;;;;2.30;1.58;;;;;;;15.60;100.00;94720.69;4927287;29;20035;-91
2022/07/08 00:59:11;;;;;;;4.38;1.73;;;;;;;15.65;100.00;94725.91;4942997;29;20079;-90
2022/07/08 01:01:37;;;;;;;3.42;1.65;;;;;;;15.77;100.00;94733.38;4927288;29;20041;-90
2022/07/08 01:04:03;;;;;;;5.00;1.60;;;;;;;15.88;100.00;94731.31;4942677;29;20031;-91
2022/07/08 01:06:28;;;;;;;8.95;2.13;;;;;;;16.00;100.00;94724.81;4942481;29;20035;-90
2022/07/08 01:08:54;;;;;;;5.88;1.92;;;;;;;15.93;100.00;94723.34;4927164;29;20038;-91
2022/07/08 01:11:19;;;;;;;3.70;1.70;;;;;;;16.09;100.00;94726.47;4926964;29;20035;-91
2022/07/08 01:13:47;;;;;;;2.05;1.67;;;;;;;15.57;100.00;94721.28;4942483;29;20035;-91
2022/07/08 01:16:12;;;;;;;2.92;1.38;;;;;;;15.82;100.00;94721.94;4942666;29;20035;-90
2022/07/08 01:18:39;;;;;;;5.82;1.45;;;;;;;16.00;100.00;94722.97;4926775;29;20059;-90
2022/07/08 01:21:05;;;;;;;2.65;1.38;;;;;;;15.81;100.00;94715.06;4927048;29;20126;-91
2022/07/08 01:23:30;;;;;;;2.45;1.45;;;;;;;16.02;100.00;94718.16;4926735;29;20429;-90
2022/07/08 01:25:56;;;;;;;3.05;1.42;;;;;;;16.09;100.00;94720.41;4926624;29;20078;-90
2022/07/08 01:28:22;;;;;;;3.53;1.58;;;;;;;15.80;100.00;94713.50;4926529;29;20059;-90
2022/07/08 01:30:47;;;;;;;2.72;1.48;;;;;;;15.94;100.00;94716.97;4926569;29;20035;-91
2022/07/08 01:33:13;;;;;;;2.25;1.50;;;;;;;15.78;100.00;94718.28;4942270;29;20035;-92
2022/07/08 01:35:38;;;;;;;2.08;1.40;;;;;;;15.66;100.00;94718.75;4926582;29;20031;-92
2022/07/08 01:38:04;;;;;;;1.42;1.30;;;;;;;15.55;100.00;94724.19;4942252;29;20361;-92
2022/07/08 01:40:30;;;;;;;3.05;1.35;;;;;;;15.25;100.00;94722.84;4942304;29;20104;-91
2022/07/08 01:42:59;;;;;;;3.58;1.20;;;;;;;15.48;100.00;94728.28;4926240;29;20437;-92
2022/07/08 01:45:24;;;;;;;3.30;1.23;;;;;;;15.62;100.00;94730.97;4926328;29;20038;-90
2022/07/08 01:47:50;;;;;;;3.13;1.40;;;;;;;15.75;100.00;94730.22;4925873;29;20098;-91
2022/07/08 01:50:15;;;;;;;2.08;1.30;;;;;;;15.75;100.00;94724.16;4926217;29;20062;-91
2022/07/08 01:52:41;;;;;;;7.60;1.90;;;;;;;15.79;100.00;94725.94;4926520;29;20070;-90
2022/07/08 01:55:07;;;;;;;4.55;1.38;;;;;;;15.57;100.00;94731.09;4941893;29;20113;-91
2022/07/08 01:57:34;;;;;;;1.50;1.40;;;;;;;15.84;100.00;94722.41;4926324;29;20023;-91
2022/07/08 01:59:59;;;;;;;3.17;1.60;;;;;;;15.97;100.00;94729.59;4925935;29;20392;-92
2022/07/08 02:02:25;;;;;;;9.05;1.70;;;;;;;16.12;100.00;94730.41;4926552;29;20029;-91
2022/07/08 02:04:50;;;;;;;7.95;1.30;;;;;;;16.08;100.00;94729.44;4941950;29;20023;-91
2022/07/08 02:07:18;;;;;;;4.38;1.58;;;;;;;16.17;100.00;94727.66;4926115;29;20046;-93
2022/07/08 02:09:43;;;;;;;3.83;1.88;;;;;;;16.21;100.00;94728.66;4926464;29;20034;-91
2022/07/08 02:12:22;;;;;;;3.05;1.75;;;;;;;15.97;100.00;94734.09;4941748;29;20027;-92
2022/07/08 02:15:03;;;;;;;4.13;1.50;;;;;;;15.94;100.00;94730.19;4927484;29;20033;-93
2022/07/08 02:17:40;;;;;;;;;;;;;;;;;;;;;
2022/07/08 02:20:16;;;;;;;6.18;1.92;;;;;;;16.12;100.00;94735.69;4943015;29;20015;-91
2022/07/08 02:22:44;;;;;;;3.40;1.48;;;;;;;15.87;100.00;94736.91;4941389;29;20125;-91
2022/07/08 02:25:10;;;;;;;4.40;1.83;;;;;;;15.83;100.00;94742.00;4941807;29;20023;-90
2022/07/08 02:27:35;;;;;;;3.65;1.90;;;;;;;15.91;100.00;94741.31;4941476;29;20034;-90
2022/07/08 02:30:03;;;;;;;4.00;1.92;;;;;;;15.86;100.00;94744.03;4958532;29;20033;-91
2022/07/08 02:32:28;;;;;;;3.55;1.40;;;;;;;15.86;100.00;94736.13;4926045;29;20027;-91
2022/07/08 02:34:54;;;;;;;4.38;2.10;;;;;;;15.65;100.00;94741.75;4958358;29;20090;-90
2022/07/08 02:37:20;;;;;;;2.88;1.52;;;;;;;15.55;100.00;94745.31;4925725;29;20027;-91
2022/07/08 02:39:46;;;;;;;5.38;1.80;;;;;;;15.53;100.00;94742.19;4925914;29;20080;-90
2022/07/08 02:42:12;;;;;;;2.50;1.90;;;;;;;15.21;100.00;94750.91;4941396;29;20038;-92
2022/07/08 02:44:37;;;;;;;3.45;2.00;;;;;;;15.07;100.00;94748.97;4941674;29;20029;-91
2022/07/08 02:47:08;;;;;;;3.15;1.80;;;;;;;15.17;100.00;94748.03;4941241;29;20031;-91
2022/07/08 02:49:34;;;;;;;5.20;1.85;;;;;;;15.34;100.00;94760.72;4925971;29;20053;-91
2022/07/08 02:52:00;;;;;;;3.65;1.50;;;;;;;15.47;100.00;94748.66;4941224;29;20031;-90
2022/07/08 02:54:25;;;;;;;2.45;1.75;;;;;;;15.74;100.00;94749.00;4941638;29;20023;-92
2022/07/08 02:56:50;;;;;;;4.10;1.83;;;;;;;15.65;100.00;94760.25;4941378;29;20031;-91
2022/07/08 02:59:16;;;;;;;3.33;1.98;;;;;;;15.47;100.00;94763.69;4926986;29;20027;-92
2022/07/08 03:01:41;;;;;;;9.95;1.95;;;;;;;14.92;100.00;94773.72;4945026;29;20031;-92
2022/07/08 03:04:07;;;;;;;3.40;2.22;;;;;;;14.93;100.00;94766.59;4944902;29;20043;-91
2022/07/08 03:06:34;;;;;;;1.92;1.70;;;;;;;15.04;100.00;94781.19;4929245;29;20031;-92
2022/07/08 03:09:00;;;;;;;6.97;2.08;;;;;;;15.17;100.00;94785.00;4944983;29;20085;-91
2022/07/08 03:11:27;;;;;;;2.20;1.77;;;;;;;15.12;100.00;94785.84;4944783;29;20031;-91
2022/07/08 03:13:52;;;;;;;6.82;2.03;;;;;;;14.91;100.00;94784.53;4944981;29;20036;-92
2022/07/08 03:16:18;;;;;;;4.00;2.38;;;;;;;14.91;100.00;94793.25;4937851;28;20031;-91
2022/07/08 03:18:43;;;;;;;3.70;2.00;;;;;;;15.11;100.00;94789.56;4948144;28;20027;-91
2022/07/08 03:21:08;;;;;;;4.20;2.13;;;;;;;15.24;100.00;94803.88;4948105;28;20030;-90
2022/07/08 03:23:34;;;;;;;4.25;2.33;;;;;;;15.10;100.00;94808.31;4980925;28;20452;-91
2022/07/08 03:26:00;;;;;;;2.50;2.20;;;;;;;14.92;100.00;94809.84;4963770;28;20038;-91
2022/07/08 03:28:26;;;;;;;2.42;1.88;;;;;;;15.07;100.00;94814.94;4947617;28;20027;-91
2022/07/08 03:30:57;;;;;;;7.65;2.20;;;;;;;15.25;100.00;94815.25;4947930;28;20027;-91
2022/07/08 03:33:25;;;;;;;3.72;2.00;;;;;;;15.13;100.00;94820.94;4947767;28;20322;-91
2022/07/08 03:35:50;;;;;;;3.28;2.35;;;;;;;15.15;100.00;94818.81;4947658;28;20038;-91
2022/07/08 03:38:16;;;;;;;5.82;2.10;;;;;;;14.93;100.00;94829.91;4947831;28;20018;-91
2022/07/08 03:43:26;;;;;;;3.42;1.73;;;;;;;15.21;100.00;94822.16;4965922;28;20074;-90
2022/07/08 03:45:53;;;;;;;7.32;1.85;;;;;;;15.38;100.00;94829.56;4980582;28;20117;-90
2022/07/08 03:48:19;;;;;;;7.20;2.13;;;;;;;15.36;100.00;94832.50;4948030;28;20074;-91
2022/07/08 03:50:44;;;;;;;4.35;2.10;;;;;;;15.06;100.00;94825.78;4963328;28;20075;-91
2022/07/08 03:53:10;;;;;;;7.43;2.00;;;;;;;15.15;100.00;94831.22;4963246;28;20030;-91
2022/07/08 03:55:38;;;;;;;3.97;2.10;;;;;;;15.01;100.00;94831.91;4947756;28;20027;-91
2022/07/08 03:58:04;;;;;;;5.00;2.28;;;;;;;15.21;100.00;94838.78;4963313;28;20040;-91
2022/07/08 04:00:30;;;;;;;6.13;2.00;;;;;;;15.07;100.00;94838.69;4963193;28;20034;-91
2022/07/08 04:02:57;;;;;;;6.18;1.90;;;;;;;15.02;100.00;94838.75;4947419;28;20305;-91
2022/07/08 04:05:25;;;;;;;5.82;2.17;;;;;;;14.95;100.00;94839.09;4947500;28;20054;-91
2022/07/08 04:07:50;;;;;;;4.88;1.98;;;;;;;15.23;100.00;94849.06;4947371;28;20026;-87
2022/07/08 04:10:16;;;;;;;7.82;1.88;;;;;;;15.07;100.00;94848.47;4980180;28;20045;-87
2022/07/08 04:12:41;;;;;;;1.70;1.60;;;;;;;15.40;100.00;94845.91;4979931;28;20031;-87
2022/07/08 04:15:07;;;;;;;2.38;1.83;;;;;;;15.36;100.00;94845.72;4980283;28;20034;-87
2022/07/08 04:17:34;;;;;;;6.72;2.35;;;;;;;15.23;100.00;94841.13;4963030;28;20026;-87
2022/07/08 04:19:59;;;;;;;5.35;2.38;;;;;;;15.08;100.00;94842.91;4962980;28;20026;-87
2022/07/08 04:22:24;;;;;;;2.28;2.08;;;;;;;15.07;100.00;94846.63;4980172;28;20031;-87
2022/07/08 04:24:50;;;;;;;2.65;2.08;;;;;;;15.26;100.00;94843.19;4962846;28;20344;-87
2022/07/08 04:27:15;;;;;;;5.32;2.58;;;;;;;15.27;100.00;94844.78;4980084;28;20026;-87
2022/07/08 04:29:41;;;;;;;5.50;2.63;;;;;;;15.14;100.00;94846.28;4963022;28;20034;-87
2022/07/08 04:32:06;;;;;;;3.42;2.30;;;;;;;15.15;100.00;94858.41;4979926;28;20031;-87
2022/07/08 04:34:32;;;;;;;6.53;2.35;;;;;;;15.20;100.00;94855.69;4962655;28;20073;-87
2022/07/08 04:36:57;;;;;;;12.20;2.35;;;;;;;15.35;100.00;94859.19;4946701;28;20034;-87
2022/07/08 04:39:23;;;;;;;6.85;2.60;;;;;;;15.73;100.00;94863.66;4946814;28;20018;-87
2022/07/08 04:41:48;;;;;;;3.42;2.10;;;;;;;15.88;100.00;94867.94;4962594;28;20037;-87
2022/07/08 04:44:13;;;;;;;2.67;2.17;;;;;;;15.95;100.00;94863.88;4962456;28;20038;-87
2022/07/08 04:46:39;;;;;;;4.13;2.55;;;;;;;15.96;100.00;94859.38;4962506;28;20069;-87
2022/07/08 04:49:04;;;;;;;4.35;2.67;;;;;;;15.79;100.00;94865.94;4962333;28;20445;-87
2022/07/08 04:51:31;;;;;;;8.95;2.58;;;;;;;16.03;100.00;94861.63;4962391;28;20082;-87
2022/07/08 04:53:56;;;;;;;6.97;2.67;;;;;;;16.14;100.00;94865.69;4962635;28;20348;-87
2022/07/08 04:56:22;;;;;;;3.13;2.70;;;;;;;16.14;100.00;94855.13;4946502;28;20026;-87
2022/07/08 04:58:47;;;;;;;4.57;2.55;;;;;;;16.18;100.00;94861.38;4979750;28;20118;-88
2022/07/08 05:01:14;;;;;;;3.05;2.10;;;;;;;16.35;100.00;94860.03;4961963;28;20027;-86
2022/07/08 05:03:40;;;;;;;8.13;2.47;;;;;;;16.47;100.00;94867.53;4962375;28;20037;-86
2022/07/08 05:06:05;;;;;;;4.85;2.55;;;;;;;16.53;100.00;94872.44;4961793;28;20038;-87
2022/07/08 05:08:31;;;;;;;2.10;1.90;;;;;;;16.48;100.00;94877.78;4962184;28;20038;-86
2022/07/08 05:10:56;;;;;;;3.85;2.15;;;;;;;16.24;100.00;94875.31;4942405;29;20031;-87
2022/07/08 05:13:21;;;;;;;12.10;2.92;;;;;;;16.06;100.00;94884.84;4958734;29;20058;-88
2022/07/08 05:15:47;;;;;;;2.63;2.08;;;;;;;16.32;100.00;94885.22;4958723;29;20380;-87
2022/07/08 05:18:12;;;;;;;6.35;2.50;;;;;;;16.08;100.00;94883.50;4942726;29;20101;-88
2022/07/08 05:20:38;;;;;;;3.72;2.13;;;;;;;16.20;100.00;94880.38;4958767;29;20037;-87
2022/07/08 05:23:03;;;;;;;2.35;1.90;;;;;;;16.46;100.00;94879.94;4926965;29;20106;-87
2022/07/08 05:25:29;;;;;;;4.30;2.67;;;;;;;16.31;100.00;94874.94;4959993;29;20027;-87
2022/07/08 05:27:54;;;;;;;5.55;2.28;;;;;;;16.19;100.00;94875.41;4959690;29;20110;-87
2022/07/08 05:30:20;;;;;;;4.82;2.40;;;;;;;16.40;100.00;94878.47;4959565;29;20039;-87
2022/07/08 05:32:45;;;;;;;4.53;2.22;;;;;;;16.45;100.00;94878.38;4959536;29;20027;-87
2022/07/08 05:35:11;;;;;;;4.78;2.55;;;;;;;16.52;100.00;94878.78;4959564;29;20027;-87
2022/07/08 05:37:38;;;;;;;4.97;2.10;;;;;;;16.76;100.00;94877.03;4958329;29;20085;-86
2022/07/08 05:40:12;;;;;;;2.47;2.05;;;;;;;16.99;100.00;94877.13;4959218;29;20059;-87
2022/07/08 05:42:38;;;;;;;8.73;2.33;;;;;;;17.32;100.00;94887.63;4959471;29;20054;-87
2022/07/08 05:45:05;;;;;;;4.32;1.85;;;;;;;17.49;100.00;94887.78;4959354;29;20039;-88
2022/07/08 05:47:30;;;;;;;5.80;1.90;;;;;;;17.47;100.00;94897.91;4959576;29;20050;-87
2022/07/08 05:49:56;;;;;;;8.15;2.13;;;;;;;17.54;100.00;94897.50;4959504;29;20039;-88
2022/07/08 05:52:21;;;;;;;7.10;2.35;;;;;;;17.74;100.00;94908.72;4958133;29;20428;-87
2022/07/08 05:54:47;;;;;;;4.45;1.95;;;;;;;17.98;100.00;94902.34;4959212;29;20424;-89
2022/07/08 05:57:13;;;;;;;5.68;2.20;;;;;;;18.07;100.00;94905.84;4959028;29;20098;-90
2022/07/08 05:59:39;;;;;;;5.68;2.50;;;;;;;18.00;100.00;94910.78;4941700;29;20445;-88
2022/07/08 06:02:05;;;;;;;2.22;1.77;;;;;;;18.10;100.00;94907.94;4959095;29;20110;-89
2022/07/08 06:04:30;;;;;;;10.85;2.13;;;;;;;18.29;100.00;94913.03;4959341;29;20058;-89
2022/07/08 06:06:56;;;;;;;3.53;2.20;;;;;;;17.90;100.00;94909.94;4957871;29;20041;-89
2022/07/08 06:09:24;;;;;;;2.55;1.77;;;;;;;18.00;100.00;94910.78;4962323;28;20052;-88
2022/07/08 06:11:51;;;;;;;4.95;1.95;;;;;;;18.35;100.00;94906.53;4961368;28;20035;-88
2022/07/08 06:14:17;;;;;;;6.00;2.05;;;;;;;18.49;100.00;94916.28;4960952;28;20035;-87
2022/07/08 06:16:43;;;;;;;7.00;2.10;;;;;;;18.43;100.00;94917.47;4960429;28;20031;-87
2022/07/08 06:19:08;;;;;;;2.83;1.95;;;;;;;18.85;100.00;94911.91;4978163;28;20037;-87
2022/07/08 06:21:34;;;;;;;6.60;1.70;;;;;;;19.00;100.00;94913.38;4961131;28;20117;-88
2022/07/08 06:24:00;;;;;;;4.10;1.77;;;;;;;19.07;100.00;94921.69;4978066;28;20340;-88
2022/07/08 06:26:26;;;;;;;8.57;2.00;;;;;;;18.97;100.00;94928.03;4978201;28;20058;-88
2022/07/08 06:28:51;;;;;;;8.68;1.90;;;;;;;18.69;100.00;94917.63;4978341;28;20065;-87
2022/07/08 06:31:19;;;;;;;8.45;2.20;;;;;;;18.96;100.00;94925.69;4978079;28;20375;-88
2022/07/08 06:33:44;;;;;;;9.45;1.95;;;;;;;18.57;100.00;94928.03;4979282;28;20118;-87
2022/07/08 06:36:10;;;;;;;4.03;1.77;;;;;;;18.83;100.00;94920.16;4957905;28;20119;-87
2022/07/08 06:38:35;;;;;;;5.28;1.92;;;;;;;18.69;100.00;94920.28;4948192;29;20035;-87
2022/07/08 06:41:01;;;;;;;2.15;1.50;;;;;;;18.85;100.00;94922.53;4965208;29;20389;-87
2022/07/08 06:43:26;;;;;;;3.17;1.77;;;;;;;19.13;100.00;94927.66;4947750;29;20023;-87
2022/07/08 06:45:51;;;;;;;3.72;1.75;;;;;;;19.24;100.00;94930.81;4964896;28;20031;-87
2022/07/08 06:48:17;;;;;;;4.88;1.85;;;;;;;19.46;100.00;94927.25;4947755;29;20035;-87
2022/07/08 06:50:42;;;;;;;8.98;1.70;;;;;;;19.39;100.00;94926.94;4965207;28;20031;-87
2022/07/08 06:53:08;;;;;;;9.38;1.67;;;;;;;19.62;100.00;94927.59;4948008;29;20097;-87
2022/07/08 06:55:33;;;;;;;11.10;1.58;;;;;;;19.85;100.00;94922.94;4965226;28;20035;-88
2022/07/08 06:57:59;;;;;;;5.25;2.20;;;;;;;19.84;100.00;94929.34;4964838;28;20027;-88
2022/07/08 07:00:24;;;;;;;9.65;1.60;;;;;;;20.01;100.00;94930.47;4948017;29;20035;-87
2022/07/08 07:02:50;;;;;;;6.63;1.90;;;;;;;19.93;100.00;94929.38;4947880;29;20384;-88
2022/07/08 07:05:17;;;;;;;3.60;1.50;;;;;;;20.14;100.00;94921.53;4947402;29;20031;-88
2022/07/08 07:07:43;;;;;;;4.38;1.48;;;;;;;20.29;100.00;94922.16;4948100;29;20349;-88
2022/07/08 07:10:09;;;;;;;2.83;1.40;;;;;;;20.40;100.00;94926.03;4965051;28;20035;-88
2022/07/08 07:12:34;;;;;;;2.55;1.48;;;;;;;20.56;100.00;94936.94;4947477;29;20058;-88
2022/07/08 07:15:00;;;;;;;1.77;1.50;;;;;;;20.55;100.00;94935.38;4947828;29;20042;-89
2022/07/08 07:17:25;;;;;;;9.73;2.05;;;;;;;20.30;100.00;94929.81;4964417;28;20038;-89
2022/07/08 07:19:51;;;;;;;7.18;1.60;;;;;;;20.61;100.00;94939.47;4947545;29;20027;-88
2022/07/08 07:22:16;;;;;;;5.60;1.60;;;;;;;20.71;100.00;94938.34;4964947;28;20392;-87
2022/07/08 07:24:42;;;;;;;2.17;1.33;;;;;;;20.96;100.00;94935.94;4964775;28;20388;-88
2022/07/08 07:27:08;;;;;;;6.22;1.80;;;;;;;20.96;100.00;94935.94;4947555;29;20113;-88
2022/07/08 07:29:34;;;;;;;5.18;1.40;;;;;;;21.09;100.00;94934.16;4947734;29;20098;-89
2022/07/08 07:31:59;;;;;;;18.73;2.97;;;;;;;21.28;100.00;94931.09;4939748;29;20429;-87
2022/07/08 07:34:25;;;;;;;5.05;1.45;;;;;;;21.02;100.00;94937.31;4947690;28;20070;-88
2022/07/08 07:36:50;;;;;;;5.68;1.75;;;;;;;21.46;100.00;94936.31;4947441;28;20050;-87
2022/07/08 07:39:16;;;;;;;3.05;1.50;;;;;;;21.53;100.00;94941.91;4931488;28;20066;-87
2022/07/08 07:41:42;;;;;;;11.77;1.55;;;;;;;21.42;100.00;94943.41;4947440;29;20073;-88
2022/07/08 07:44:07;;;;;;;7.10;1.63;;;;;;;21.74;100.00;94947.31;4964193;29;20031;-89
2022/07/08 07:46:33;;;;;;;4.13;1.40;;;;;;;20.95;100.00;94954.88;4943583;29;20463;-87
2022/07/08 07:48:59;;;;;;;6.18;1.83;;;;;;;21.31;100.00;94949.09;4944603;29;20039;-88
2022/07/08 07:51:24;;;;;;;3.97;1.15;;;;;;;21.30;100.00;94954.72;4944278;29;20059;-88
2022/07/08 07:53:50;;;;;;;5.15;1.45;;;;;;;21.57;100.00;94952.69;4944293;29;20027;-88
2022/07/08 07:56:15;;;;;;;2.63;1.10;;;;;;;21.87;100.00;94956.16;4944299;29;20038;-89
2022/07/08 07:58:41;;;;;;;3.20;1.10;;;;;;;21.89;100.00;94961.16;4944088;29;20031;-87
2022/07/08 08:01:06;;;;;;;4.47;1.42;;;;;;;21.71;100.00;94963.16;4944120;29;20039;-87
2022/07/08 08:03:32;;;;;;;9.75;1.15;;;;;;;21.35;100.00;94961.75;4944249;29;20456;-88
2022/07/08 08:05:58;;;;;;;6.03;1.45;;;;;;;21.38;100.00;94966.47;4944375;29;20035;-88
2022/07/08 08:08:24;;;;;;;3.88;1.40;;;;;;;21.42;100.00;94956.72;4943566;29;20031;-87
2022/07/08 08:10:51;;;;;;;6.50;1.20;;;;;;;21.94;100.00;94957.50;4944016;29;20042;-88
2022/07/08 08:13:16;;;;;;;6.25;1.00;;;;;;;21.94;100.00;94965.50;4944152;29;20035;-87
2022/07/08 08:15:42;;;;;;;4.25;1.23;;;;;;;22.27;100.00;94973.56;4961298;29;20043;-87
2022/07/08 08:18:07;;;;;;;6.47;1.08;;;;;;;22.11;100.00;94962.72;4943868;29;20352;-86
2022/07/08 08:20:33;;;;;;;4.05;0.82;;;;;;;22.38;100.00;94963.28;4943527;29;20027;-87
2022/07/08 08:22:58;;;;;;;9.32;1.10;;;;;;;22.19;100.00;94966.44;4961079;29;20069;-87
2022/07/08 08:25:24;;;;;;;5.60;1.25;;;;;;;22.26;100.00;94963.22;4944023;29;20045;-88
2022/07/08 08:27:49;;;;;;;2.20;0.70;;;;;;;21.78;100.00;94966.09;4943609;29;20118;-86
2022/07/08 08:30:16;;;;;;;6.15;1.05;;;;;;;22.27;100.00;94975.47;4943303;29;20067;-88
2022/07/08 08:32:42;;;;;;;11.30;1.05;;;;;;;21.83;100.00;94971.25;4943819;29;20031;-87
2022/07/08 08:35:09;;;;;;;2.95;0.95;;;;;;;21.91;100.00;94979.50;4927897;29;20066;-87
2022/07/08 08:37:35;;;;;;;3.25;1.00;;;;;;;21.97;100.00;94978.97;4927903;29;20086;-88
2022/07/08 08:40:05;;;;;;;12.50;1.00;;;;;;;21.83;100.00;94975.78;4943512;29;20031;-87
2022/07/08 08:42:31;;;;;;;5.03;0.93;;;;;;;21.91;100.00;94984.81;4943400;29;20039;-87
2022/07/08 08:45:02;;;;;;;6.13;1.00;;;;;;;22.22;100.00;94983.66;4960659;29;20039;-87
2022/07/08 08:47:28;;;;;;;4.25;1.13;;;;;;;22.41;100.00;94980.50;4943870;29;20058;-86
2022/07/08 08:50:53;;;;;;;10.43;1.23;;;;;;;22.64;100.00;94991.63;4942941;29;20031;-88
2022/07/08 08:52:52;;;;;;;5.35;1.15;;;;;;;22.43;100.00;94987.09;4945762;29;20077;-87
2022/07/08 08:55:27;;;;;;;2.38;0.70;;;;;;;22.46;100.00;94983.75;4927281;29;20318;-87
2022/07/08 08:57:57;;;;;;;7.40;1.23;;;;;;;22.97;100.00;94985.50;4959680;28;20027;-87
2022/07/08 09:00:25;;;;;;;2.40;0.82;;;;;;;23.04;100.00;94987.63;4943050;29;20043;-88
2022/07/08 09:02:51;;;;;;;5.53;1.00;;;;;;;22.74;99.41;94995.78;4942905;29;20114;-87
2022/07/08 09:05:17;;;;;;;2.83;0.80;;;;;;;22.39;100.00;94991.53;4943012;29;20460;-88
2022/07/08 09:07:44;;;;;;;10.90;1.45;;;;;;;22.66;100.00;94986.72;4960089;29;20031;-87
2022/07/08 09:10:09;;;;;;;6.15;1.35;;;;;;;22.45;100.00;94990.22;4960268;29;20063;-89
2022/07/08 09:12:35;;;;;;;5.55;1.45;;;;;;;22.97;100.00;94984.69;4942730;29;20089;-86
2022/07/08 09:15:01;;;;;;;3.90;0.85;;;;;;;22.94;100.00;94982.69;4959947;29;20066;-88
2022/07/08 09:17:27;;;;;;;3.50;1.13;;;;;;;22.67;100.00;94985.66;4943172;29;20356;-87
2022/07/08 09:19:52;;;;;;;3.65;1.15;;;;;;;23.13;100.00;94985.59;4942662;29;20110;-88
2022/07/08 09:22:22;;;;;;;2.67;1.00;;;;;;;22.71;100.00;94983.88;4942917;29;20027;-87
2022/07/08 09:24:48;;;;;;;2.90;0.95;;;;;;;22.85;100.00;94991.56;4942532;29;20034;-87
2022/07/08 09:27:13;;;;;;;4.15;0.82;;;;;;;22.94;100.00;94988.81;4942678;29;20039;-88
2022/07/08 09:29:40;;;;;;;6.05;1.30;;;;;;;22.72;100.00;94990.78;4942494;29;20429;-88
2022/07/08 09:32:13;;;;;;;9.40;1.30;;;;;;;22.91;100.00;94996.72;4942226;29;20109;-88
2022/07/08 09:34:38;;;;;;;1.48;0.80;;;;;;;23.09;99.42;94994.63;4942365;29;20455;-88
2022/07/08 09:37:15;;;;;;;4.30;0.82;;;;;;;23.21;100.00;94994.63;4926314;29;20034;-88
2022/07/08 09:39:42;;;;;;;4.38;1.00;;;;;;;23.40;100.00;95001.38;4942192;29;20560;-86
2022/07/08 09:42:11;;;;;;;7.38;1.08;;;;;;;23.41;100.00;94992.25;4942376;29;20031;-87
2022/07/08 09:44:37;;;;;;;6.07;1.33;;;;;;;22.67;100.00;95001.69;4926341;29;20038;-86
2022/07/08 09:47:13;;;;;;;6.40;1.33;;;;;;;22.93;100.00;94999.84;4959213;29;20027;-87
2022/07/08 09:49:41;;;;;;;6.40;1.73;;;;;;;23.35;100.00;94994.34;4959271;29;20023;-87
2022/07/08 09:52:07;;;;;;;12.43;1.30;;;;;;;23.89;100.00;94999.75;4942566;29;20082;-86
2022/07/08 09:54:33;;;;;;;6.70;1.10;;;;;;;23.95;99.97;95001.09;4942116;29;20369;-87
2022/07/08 09:57:03;;;;;;;10.65;1.27;;;;;;;24.01;97.65;94997.06;4942072;29;20030;-87
2022/07/08 09:59:33;;;;;;;6.30;1.83;;;;;;;23.78;95.34;94994.88;4959249;29;20114;-87
2022/07/08 10:01:59;;;;;;;4.50;1.40;;;;;;;24.35;97.43;94994.97;4942204;29;20027;-89
2022/07/08 10:04:25;;;;;;;3.78;1.40;;;;;;;24.51;92.68;94991.56;4941972;29;20031;-88
2022/07/08 10:06:51;;;;;;;5.93;1.75;;;;;;;24.60;88.52;94988.72;4959364;29;20037;-87
2022/07/08 10:09:18;;;;;;;2.58;1.20;;;;;;;24.16;91.86;94995.59;4941142;29;20038;-87
2022/07/08 10:11:44;;;;;;;3.65;1.20;;;;;;;24.21;100.00;94992.69;4948530;29;20031;-88
2022/07/08 10:14:09;;;;;;;3.22;1.42;;;;;;;24.22;98.83;94985.44;4949454;28;20046;-88
2022/07/08 10:16:37;;;;;;;6.07;1.40;;;;;;;24.35;99.76;94983.50;4963335;28;20039;-88
2022/07/08 10:19:03;;;;;;;4.85;1.48;;;;;;;24.85;92.89;94992.88;4942106;29;20464;-88
2022/07/08 10:21:30;;;;;;;5.90;1.17;;;;;;;25.57;91.09;94986.94;4941790;29;20055;-89
2022/07/08 10:23:55;;;;;;;4.63;1.08;;;;;;;25.69;80.41;94992.97;4941604;29;20031;-88
2022/07/08 10:26:24;;;;;;;3.33;1.00;;;;;;;25.31;88.42;94994.38;4942057;29;20114;-87
2022/07/08 10:29:20;;;;;;;8.07;1.20;;;;;;;25.36;100.00;94987.97;4941670;29;20027;-88
2022/07/08 10:31:48;;;;;;;4.43;1.17;;;;;;;24.88;93.95;94986.06;4958102;29;20046;-89
2022/07/08 10:34:20;;;;;;;4.05;1.38;;;;;;;24.51;82.71;94983.53;4958620;29;20023;-89
2022/07/08 10:36:48;;;;;;;3.67;1.13;;;;;;;24.70;83.15;94981.00;4941539;29;20042;-89
2022/07/08 10:39:14;;;;;;;4.13;1.40;;;;;;;24.80;95.98;94985.09;4971203;28;20027;-88
2022/07/08 10:41:40;;;;;;;5.35;1.40;;;;;;;25.04;81.20;94988.78;4960707;28;20030;-88
2022/07/08 10:44:07;;;;;;;6.00;1.50;;;;;;;24.62;83.78;94986.53;4960859;28;20034;-87
2022/07/08 10:46:32;;;;;;;5.55;1.10;;;;;;;24.94;93.45;94987.34;4960821;28;20446;-87
2022/07/08 10:49:00;;;;;;;4.50;1.38;;;;;;;24.98;92.07;94992.81;4960510;28;20034;-87
2022/07/08 10:51:29;;;;;;;4.53;1.40;;;;;;;24.87;70.99;94989.88;4960703;28;20026;-86
2022/07/08 10:53:57;;;;;;;3.67;1.27;;;;;;;24.67;73.88;94989.69;4977741;28;20102;-87
2022/07/08 10:56:44;;;;;;;3.25;0.88;;;;;;;24.09;81.47;94987.38;4960669;28;20026;-87
2022/07/08 10:59:26;;;;;;;9.00;1.75;;;;;;;24.43;88.21;94988.72;4977413;28;20039;-88
2022/07/08 11:01:54;;;;;;;4.55;1.40;;;;;;;24.17;73.35;94986.44;4960601;28;20109;-88
2022/07/08 11:04:27;;;;;;;1.75;1.00;;;;;;;24.40;77.68;94983.25;4960247;28;20031;-87
2022/07/08 11:06:55;;;;;;;2.15;0.90;;;;;;;24.30;82.19;94984.53;4944773;28;20031;-88
2022/07/08 11:09:23;;;;;;;5.93;1.10;;;;;;;24.37;67.29;94982.03;4960460;28;20046;-88
2022/07/08 11:11:49;;;;;;;4.75;1.10;;;;;;;24.61;79.16;94987.66;4961057;28;20400;-90
2022/07/08 11:14:15;;;;;;;2.38;1.05;;;;;;;25.04;78.42;94985.28;4944612;28;20027;-86
2022/07/08 11:16:40;;;;;;;5.80;1.10;;;;;;;24.52;62.45;94980.53;4978313;28;20031;-88
2022/07/08 11:19:06;;;;;;;2.38;0.90;;;;;;;24.78;72.36;94986.56;4960904;28;20018;-88
2022/07/08 11:21:32;;;;;;;1.40;1.00;;;;;;;24.80;68.62;94990.47;4947630;28;20054;-88
2022/07/08 11:23:58;;;;;;;3.63;1.00;;;;;;;24.50;59.76;94984.66;4981361;28;20117;-86
2022/07/08 11:26:24;;;;;;;6.90;1.02;;;;;;;24.41;64.30;94985.59;4963743;28;20406;-88